createdAt,value
2017-10-25T00:00:07.503Z,13.32
2017-10-25T00:01:10.798Z,12.98
2017-10-25T00:02:13.328Z,12.75
2017-10-25T00:03:15.913Z,13.07
2017-10-25T00:04:18.433Z,12.77
2017-10-25T00:05:20.953Z,12.32
2017-10-25T00:06:24.265Z,13.00
2017-10-25T00:07:26.805Z,13.40
2017-10-25T00:08:30.117Z,15.05
2017-10-25T00:09:32.651Z,13.20
2017-10-25T00:10:35.941Z,13.73
2017-10-25T00:11:39.260Z,14.60
2017-10-25T00:12:41.782Z,18.30
2017-10-25T00:13:45.121Z,14.55
2017-10-25T00:14:47.643Z,13.25
2017-10-25T00:15:51.126Z,16.33
2017-10-25T00:16:54.412Z,13.10
2017-10-25T00:17:57.701Z,12.68
2017-10-25T00:19:00.222Z,16.23
2017-10-25T00:20:02.750Z,10.70
2017-10-25T00:21:05.313Z,12.27
2017-10-25T00:22:07.877Z,13.68
2017-10-25T00:23:10.443Z,14.07
2017-10-25T00:24:12.960Z,13.95
2017-10-25T00:25:15.510Z,14.27
2017-10-25T00:26:18.046Z,13.00
2017-10-25T00:27:20.571Z,12.27
2017-10-25T00:28:23.881Z,12.07
2017-10-25T00:29:26.414Z,13.40
2017-10-25T00:30:28.982Z,18.37
2017-10-25T00:31:31.505Z,14.25
2017-10-25T00:32:34.039Z,16.52
2017-10-25T00:33:37.333Z,11.90
2017-10-25T00:34:39.867Z,16.12
2017-10-25T00:35:42.421Z,13.65
2017-10-25T00:36:44.949Z,16.08
2017-10-25T00:37:47.464Z,14.10
2017-10-25T00:38:49.989Z,15.43
2017-10-25T00:39:52.749Z,15.15
2017-10-25T00:40:55.293Z,13.60
2017-10-25T00:41:58.594Z,12.90
2017-10-25T00:43:01.114Z,11.15
2017-10-25T00:44:03.668Z,12.70
2017-10-25T00:45:06.190Z,13.50
2017-10-25T00:46:08.835Z,12.25
2017-10-25T00:47:12.130Z,11.57
2017-10-25T00:48:14.659Z,13.30
2017-10-25T00:49:17.177Z,16.50
2017-10-25T00:50:19.757Z,15.82
2017-10-25T00:51:22.271Z,13.25
2017-10-25T00:52:24.796Z,15.25
2017-10-25T00:53:27.329Z,12.93
2017-10-25T00:54:29.844Z,11.35
2017-10-25T00:55:32.427Z,16.58
2017-10-25T00:56:34.946Z,13.98
2017-10-25T00:57:37.502Z,13.10
2017-10-25T00:58:40.026Z,15.15
2017-10-25T00:59:42.542Z,15.18
2017-10-25T01:00:45.100Z,13.60
2017-10-25T01:01:47.629Z,15.15
2017-10-25T01:02:50.145Z,12.35
2017-10-25T01:03:52.682Z,15.43
2017-10-25T01:04:55.223Z,18.23
2017-10-25T01:05:57.785Z,14.87
2017-10-25T01:07:00.315Z,15.88
2017-10-25T01:08:02.837Z,14.98
2017-10-25T01:09:06.127Z,17.05
2017-10-25T01:10:09.431Z,17.25
2017-10-25T01:11:12.009Z,13.62
2017-10-25T01:12:14.610Z,16.37
2017-10-25T01:13:17.127Z,10.93
2017-10-25T01:14:19.651Z,17.67
2017-10-25T01:15:22.194Z,18.98
2017-10-25T01:16:24.756Z,15.73
2017-10-25T01:17:27.287Z,14.70
2017-10-25T01:18:29.841Z,15.90
2017-10-25T01:19:33.138Z,13.55
2017-10-25T01:20:35.662Z,15.05
2017-10-25T01:21:38.210Z,13.38
2017-10-25T01:22:40.734Z,11.05
2017-10-25T01:23:43.253Z,11.40
2017-10-25T01:24:45.803Z,12.55
2017-10-25T01:25:48.320Z,16.08
2017-10-25T01:26:50.852Z,12.13
2017-10-25T01:27:53.371Z,16.27
2017-10-25T01:28:55.931Z,16.45
2017-10-25T01:29:58.481Z,12.77
2017-10-25T01:31:01.770Z,14.60
2017-10-25T01:32:04.295Z,12.32
2017-10-25T01:33:06.818Z,12.18
2017-10-25T01:34:09.376Z,12.85
2017-10-25T01:35:11.930Z,13.90
2017-10-25T01:36:15.217Z,12.73
2017-10-25T01:37:17.789Z,14.13
2017-10-25T01:38:20.317Z,15.93
2017-10-25T01:39:22.838Z,14.90
2017-10-25T01:40:25.374Z,13.05
2017-10-25T01:41:28.696Z,14.95
2017-10-25T01:42:31.274Z,14.38
2017-10-25T01:43:33.792Z,14.93
2017-10-25T01:44:37.087Z,16.12
2017-10-25T01:45:39.614Z,12.75
2017-10-25T01:46:42.153Z,14.52
2017-10-25T01:47:44.723Z,19.90
2017-10-25T01:48:47.290Z,12.55
2017-10-25T01:49:49.838Z,12.65
2017-10-25T01:50:52.356Z,15.55
2017-10-25T01:51:54.940Z,13.27
2017-10-25T01:52:57.471Z,15.40
2017-10-25T01:53:59.993Z,14.20
2017-10-25T01:55:02.522Z,15.95
2017-10-25T01:56:05.052Z,18.00
2017-10-25T01:57:07.628Z,19.73
2017-10-25T01:58:10.154Z,15.50
2017-10-25T01:59:12.680Z,16.00
2017-10-25T02:00:15.209Z,14.63
2017-10-25T02:01:17.732Z,13.57
2017-10-25T02:02:21.074Z,14.80
2017-10-25T02:03:23.597Z,19.77
2017-10-25T02:04:26.134Z,13.65
2017-10-25T02:05:29.437Z,17.33
2017-10-25T02:06:31.972Z,16.48
2017-10-25T02:07:34.541Z,15.77
2017-10-25T02:08:37.085Z,16.70
2017-10-25T02:09:39.618Z,15.77
2017-10-25T02:10:42.139Z,14.55
2017-10-25T02:11:44.657Z,15.80
2017-10-25T02:12:47.249Z,15.50
2017-10-25T02:13:49.804Z,15.40
2017-10-25T02:14:52.335Z,14.85
2017-10-25T02:15:55.629Z,14.93
2017-10-25T02:16:58.153Z,16.50
2017-10-25T02:18:00.701Z,13.18
2017-10-25T02:19:03.230Z,17.37
2017-10-25T02:20:05.760Z,18.02
2017-10-25T02:21:08.277Z,12.18
2017-10-25T02:22:10.807Z,13.48
2017-10-25T02:23:14.123Z,16.48
2017-10-25T02:24:16.647Z,15.20
2017-10-25T02:25:19.942Z,20.85
2017-10-25T02:26:23.263Z,14.68
2017-10-25T02:27:25.786Z,18.77
2017-10-25T02:28:29.075Z,11.77
2017-10-25T02:29:32.400Z,15.30
2017-10-25T02:30:34.974Z,14.90
2017-10-25T02:31:37.502Z,15.63
2017-10-25T02:32:40.029Z,16.70
2017-10-25T02:33:42.552Z,17.60
2017-10-25T02:34:45.067Z,14.00
2017-10-25T02:35:48.403Z,13.20
2017-10-25T02:36:50.917Z,14.93
2017-10-25T02:37:53.455Z,15.18
2017-10-25T02:38:56.031Z,15.23
2017-10-25T02:39:58.554Z,13.82
2017-10-25T02:41:01.086Z,14.00
2017-10-25T02:42:03.622Z,18.30
2017-10-25T02:43:06.145Z,12.90
2017-10-25T02:44:08.717Z,14.13
2017-10-25T02:45:11.246Z,13.98
2017-10-25T02:46:13.766Z,17.87
2017-10-25T02:47:16.314Z,12.68
2017-10-25T02:48:18.843Z,12.98
2017-10-25T02:49:21.411Z,13.60
2017-10-25T02:50:23.938Z,14.98
2017-10-25T02:51:26.507Z,15.30
2017-10-25T02:52:29.042Z,15.43
2017-10-25T02:53:31.558Z,13.40
2017-10-25T02:54:34.103Z,13.48
2017-10-25T02:55:36.633Z,14.52
2017-10-25T02:56:39.955Z,14.98
2017-10-25T02:57:42.521Z,14.73
2017-10-25T02:58:45.041Z,12.93
2017-10-25T02:59:48.347Z,12.23
2017-10-25T03:00:50.877Z,15.55
2017-10-25T03:01:53.472Z,12.82
2017-10-25T03:02:56.052Z,16.50
2017-10-25T03:03:58.570Z,13.02
2017-10-25T03:05:01.088Z,12.25
2017-10-25T03:06:03.610Z,13.88
2017-10-25T03:07:06.128Z,12.00
2017-10-25T03:08:08.690Z,11.95
2017-10-25T03:09:11.231Z,11.43
2017-10-25T03:10:13.774Z,11.93
2017-10-25T03:11:16.314Z,15.75
2017-10-25T03:12:18.882Z,14.35
2017-10-25T03:13:21.449Z,14.65
2017-10-25T03:14:23.962Z,13.30
2017-10-25T03:15:27.247Z,12.27
2017-10-25T03:16:29.774Z,12.95
2017-10-25T03:17:32.311Z,17.02
2017-10-25T03:18:35.530Z,12.52
2017-10-25T03:19:38.053Z,13.43
2017-10-25T03:20:40.631Z,13.75
2017-10-25T03:21:43.195Z,11.80
2017-10-25T03:22:45.762Z,12.52
2017-10-25T03:23:48.316Z,14.23
2017-10-25T03:24:50.828Z,11.48
2017-10-25T03:25:53.464Z,12.27
2017-10-25T03:26:55.983Z,14.40
2017-10-25T03:27:59.306Z,18.70
2017-10-25T03:29:01.826Z,11.57
2017-10-25T03:30:05.125Z,16.25
2017-10-25T03:31:07.707Z,17.55
2017-10-25T03:32:10.229Z,16.60
2017-10-25T03:33:12.758Z,12.05
2017-10-25T03:34:15.291Z,11.93
2017-10-25T03:35:17.814Z,13.10
2017-10-25T03:36:20.410Z,12.65
2017-10-25T03:37:24.615Z,12.55
2017-10-25T03:38:27.944Z,11.88
2017-10-25T03:39:30.465Z,14.52
2017-10-25T03:40:33.786Z,15.48
2017-10-25T03:41:36.353Z,12.13
2017-10-25T03:42:38.874Z,13.15
2017-10-25T03:43:42.162Z,14.07
2017-10-25T03:44:45.453Z,16.05
2017-10-25T03:45:48.750Z,12.13
2017-10-25T03:46:51.317Z,13.48
2017-10-25T03:47:53.941Z,15.52
2017-10-25T03:48:57.363Z,15.60
2017-10-25T03:49:59.897Z,13.77
2017-10-25T03:51:02.417Z,12.90
2017-10-25T03:52:04.981Z,12.82
2017-10-25T03:53:07.509Z,13.07
2017-10-25T03:54:10.046Z,14.10
2017-10-25T03:55:12.583Z,14.25
2017-10-25T03:56:15.110Z,18.42
2017-10-25T03:57:18.435Z,14.27
2017-10-25T03:58:20.958Z,12.93
2017-10-25T03:59:24.242Z,16.02
2017-10-25T04:00:27.534Z,14.38
2017-10-25T04:01:30.826Z,12.15
2017-10-25T04:02:34.150Z,13.88
2017-10-25T04:03:36.673Z,13.90
2017-10-25T04:04:39.966Z,12.20
2017-10-25T04:05:42.492Z,14.70
2017-10-25T04:06:45.025Z,12.95
2017-10-25T04:07:47.582Z,15.43
2017-10-25T04:08:50.097Z,12.85
2017-10-25T04:09:52.626Z,19.30
2017-10-25T04:10:55.153Z,14.13
2017-10-25T04:11:57.685Z,14.80
2017-10-25T04:13:00.257Z,11.80
2017-10-25T04:14:02.792Z,15.98
2017-10-25T04:15:05.314Z,15.10
2017-10-25T04:16:08.611Z,14.25
2017-10-25T04:17:11.142Z,14.50
2017-10-25T04:18:13.702Z,17.42
2017-10-25T04:19:16.264Z,16.27
2017-10-25T04:20:18.797Z,12.95
2017-10-25T04:21:21.327Z,12.63
2017-10-25T04:22:24.611Z,12.27
2017-10-25T04:23:27.947Z,15.55
2017-10-25T04:24:30.461Z,14.02
2017-10-25T04:25:33.751Z,15.30
2017-10-25T04:26:36.283Z,12.37
2017-10-25T04:27:38.822Z,12.35
2017-10-25T04:28:41.380Z,11.65
2017-10-25T04:29:43.908Z,13.35
2017-10-25T04:30:47.207Z,12.30
2017-10-25T04:31:49.736Z,13.25
2017-10-25T04:32:52.272Z,12.73
2017-10-25T04:33:54.835Z,14.80
2017-10-25T04:34:57.358Z,12.07
2017-10-25T04:36:00.700Z,15.90
2017-10-25T04:37:03.242Z,11.98
2017-10-25T04:38:05.774Z,12.27
2017-10-25T04:39:08.326Z,16.35
2017-10-25T04:40:11.619Z,12.85
2017-10-25T04:41:14.959Z,13.57
2017-10-25T04:42:17.484Z,14.68
2017-10-25T04:43:20.019Z,15.50
2017-10-25T04:44:23.321Z,12.57
2017-10-25T04:45:26.657Z,12.35
2017-10-25T04:46:29.188Z,14.30
2017-10-25T04:47:31.726Z,13.10
2017-10-25T04:48:35.022Z,12.88
2017-10-25T04:49:38.323Z,13.93
2017-10-25T04:50:40.890Z,13.65
2017-10-25T04:51:43.429Z,13.00
2017-10-25T04:52:46.723Z,14.65
2017-10-25T04:53:50.019Z,12.35
2017-10-25T04:54:52.545Z,13.18
2017-10-25T04:55:55.115Z,10.75
2017-10-25T04:56:57.641Z,12.25
2017-10-25T04:58:00.164Z,12.15
2017-10-25T04:59:03.468Z,16.20
2017-10-25T05:00:06.006Z,15.23
2017-10-25T05:01:08.570Z,12.20
2017-10-25T05:02:11.098Z,14.95
2017-10-25T05:03:13.651Z,13.77
2017-10-25T05:04:16.177Z,11.27
2017-10-25T05:05:19.465Z,12.85
2017-10-25T05:06:22.760Z,12.90
2017-10-25T05:07:26.050Z,12.93
2017-10-25T05:08:28.695Z,9.73
2017-10-25T05:09:31.981Z,16.17
2017-10-25T05:10:35.278Z,15.63
2017-10-25T05:11:38.569Z,10.98
2017-10-25T05:12:41.098Z,12.95
2017-10-25T05:13:43.672Z,20.70
2017-10-25T05:14:46.196Z,9.43
2017-10-25T05:15:48.726Z,15.88
2017-10-25T05:16:52.010Z,9.82
2017-10-25T05:17:54.549Z,11.27
2017-10-25T05:18:57.105Z,12.82
2017-10-25T05:19:59.658Z,11.77
2017-10-25T05:21:02.177Z,12.05
2017-10-25T05:22:04.700Z,9.40
2017-10-25T05:23:07.248Z,10.82
2017-10-25T05:24:09.814Z,9.23
2017-10-25T05:25:12.330Z,11.55
2017-10-25T05:26:15.618Z,11.85
2017-10-25T05:27:18.905Z,11.27
2017-10-25T05:28:22.185Z,12.30
2017-10-25T05:29:25.513Z,9.98
2017-10-25T05:30:28.038Z,9.18
2017-10-25T05:31:30.595Z,9.38
2017-10-25T05:32:33.149Z,9.10
2017-10-25T05:33:35.679Z,9.68
2017-10-25T05:34:38.242Z,12.52
2017-10-25T05:35:40.772Z,10.57
2017-10-25T05:36:43.298Z,7.93
2017-10-25T05:37:45.825Z,8.80
2017-10-25T05:38:48.341Z,8.45
2017-10-25T05:39:50.908Z,11.05
2017-10-25T05:40:53.437Z,9.30
2017-10-25T05:41:55.996Z,10.85
2017-10-25T05:42:58.526Z,8.20
2017-10-25T05:44:01.818Z,10.45
2017-10-25T05:45:04.349Z,9.85
2017-10-25T05:46:07.000Z,8.52
2017-10-25T05:47:09.552Z,9.80
2017-10-25T05:48:12.064Z,9.70
2017-10-25T05:49:15.354Z,8.32
2017-10-25T05:50:18.642Z,10.13
2017-10-25T05:51:21.970Z,10.60
2017-10-25T05:52:24.489Z,10.07
2017-10-25T05:53:27.818Z,7.82
2017-10-25T05:54:30.332Z,10.10
2017-10-25T05:55:33.643Z,11.40
2017-10-25T05:56:36.178Z,8.88
2017-10-25T05:57:39.475Z,8.65
2017-10-25T05:58:42.811Z,8.45
2017-10-25T05:59:45.401Z,9.02
2017-10-25T06:00:47.933Z,10.02
2017-10-25T06:01:50.471Z,8.70
2017-10-25T06:02:53.017Z,8.35
2017-10-25T06:03:56.306Z,7.93
2017-10-25T06:04:59.639Z,7.15
2017-10-25T06:06:02.158Z,9.25
2017-10-25T06:07:05.443Z,9.85
2017-10-25T06:08:08.734Z,7.87
2017-10-25T06:09:12.017Z,6.80
2017-10-25T06:10:15.333Z,9.45
2017-10-25T06:11:17.900Z,11.45
2017-10-25T06:12:20.423Z,10.25
2017-10-25T06:13:23.721Z,9.75
2017-10-25T06:14:26.344Z,10.43
2017-10-25T06:15:28.861Z,9.95
2017-10-25T06:16:31.405Z,10.23
2017-10-25T06:17:34.742Z,11.57
2017-10-25T06:18:37.263Z,8.88
2017-10-25T06:19:40.557Z,8.35
2017-10-25T06:20:43.100Z,10.48
2017-10-25T06:21:46.385Z,8.38
2017-10-25T06:22:49.733Z,9.25
2017-10-25T06:23:52.282Z,10.38
2017-10-25T06:24:54.805Z,9.13
2017-10-25T06:25:58.097Z,15.40
2017-10-25T06:27:01.403Z,8.95
2017-10-25T06:28:04.883Z,12.32
2017-10-25T06:29:07.445Z,10.48
2017-10-25T06:30:09.973Z,9.35
2017-10-25T06:31:12.489Z,13.07
2017-10-25T06:32:15.017Z,10.15
2017-10-25T06:33:17.578Z,9.18
2017-10-25T06:34:20.099Z,9.15
2017-10-25T06:35:22.618Z,8.15
2017-10-25T06:36:25.906Z,9.63
2017-10-25T06:37:29.194Z,11.05
2017-10-25T06:38:32.541Z,10.80
2017-10-25T06:39:35.058Z,14.10
2017-10-25T06:40:37.625Z,12.10
2017-10-25T06:41:40.154Z,14.27
2017-10-25T06:42:42.679Z,11.88
2017-10-25T06:43:45.271Z,15.90
2017-10-25T06:44:47.791Z,10.85
2017-10-25T06:45:50.315Z,10.18
2017-10-25T06:46:52.843Z,10.80
2017-10-25T06:47:55.378Z,12.60
2017-10-25T06:48:57.933Z,10.95
2017-10-25T06:50:01.225Z,18.00
2017-10-25T06:51:03.758Z,11.12
2017-10-25T06:52:06.279Z,15.13
2017-10-25T06:53:08.832Z,11.65
2017-10-25T06:54:11.394Z,12.27
2017-10-25T06:55:13.932Z,10.30
2017-10-25T06:56:17.237Z,9.95
2017-10-25T06:57:19.775Z,11.80
2017-10-25T06:58:22.333Z,13.00
2017-10-25T06:59:24.888Z,9.57
2017-10-25T07:00:27.579Z,9.05
2017-10-25T07:01:30.114Z,9.25
2017-10-25T07:02:32.642Z,9.23
2017-10-25T07:03:35.206Z,8.63
2017-10-25T07:04:37.738Z,7.53
2017-10-25T07:05:40.256Z,7.53
2017-10-25T07:06:42.805Z,8.65
2017-10-25T07:07:46.098Z,9.05
2017-10-25T07:08:48.624Z,7.72
2017-10-25T07:09:51.147Z,9.68
2017-10-25T07:10:53.661Z,8.20
2017-10-25T07:11:56.214Z,6.40
2017-10-25T07:12:58.731Z,7.35
2017-10-25T07:14:01.282Z,6.53
2017-10-25T07:15:04.570Z,8.32
2017-10-25T07:16:07.862Z,6.53
2017-10-25T07:17:10.416Z,12.32
2017-10-25T07:18:13.702Z,6.00
2017-10-25T07:19:16.278Z,7.43
2017-10-25T07:20:18.802Z,17.17
2017-10-25T07:21:21.329Z,7.07
2017-10-25T07:22:23.860Z,7.87
2017-10-25T07:23:27.157Z,7.80
2017-10-25T07:24:29.816Z,7.20
2017-10-25T07:25:32.350Z,5.87
2017-10-25T07:26:34.909Z,12.32
2017-10-25T07:27:37.446Z,6.75
2017-10-25T07:28:39.973Z,9.05
2017-10-25T07:29:43.290Z,5.93
2017-10-25T07:30:45.817Z,7.03
2017-10-25T07:31:49.116Z,6.85
2017-10-25T07:32:52.394Z,7.53
2017-10-25T07:33:55.686Z,5.47
2017-10-25T07:34:58.243Z,9.15
2017-10-25T07:36:01.522Z,6.15
2017-10-25T07:37:04.810Z,8.90
2017-10-25T07:38:08.139Z,7.30
2017-10-25T07:39:10.654Z,7.12
2017-10-25T07:40:13.937Z,9.05
2017-10-25T07:41:17.242Z,6.47
2017-10-25T07:42:19.802Z,5.95
2017-10-25T07:43:23.086Z,8.65
2017-10-25T07:44:25.730Z,5.75
2017-10-25T07:45:28.282Z,9.88
2017-10-25T07:46:30.794Z,7.15
2017-10-25T07:47:33.333Z,6.18
2017-10-25T07:48:36.617Z,11.90
2017-10-25T07:49:39.908Z,5.35
2017-10-25T07:50:43.209Z,5.53
2017-10-25T07:51:45.766Z,7.22
2017-10-25T07:52:49.054Z,5.70
2017-10-25T07:53:51.622Z,4.78
2017-10-25T07:54:54.896Z,7.70
2017-10-25T07:55:58.198Z,5.57
2017-10-25T07:57:00.739Z,4.57
2017-10-25T07:58:04.033Z,5.97
2017-10-25T07:59:07.365Z,4.35
2017-10-25T08:00:09.895Z,5.30
2017-10-25T08:01:12.422Z,4.78
2017-10-25T08:02:14.936Z,4.40
2017-10-25T08:03:17.479Z,5.03
2017-10-25T08:04:20.777Z,4.97
2017-10-25T08:05:23.291Z,5.22
2017-10-25T08:06:25.803Z,4.85
2017-10-25T08:07:28.326Z,5.45
2017-10-25T08:08:30.907Z,4.80
2017-10-25T08:09:33.431Z,7.03
2017-10-25T08:10:36.026Z,4.40
2017-10-25T08:11:38.563Z,4.18
2017-10-25T08:12:41.098Z,4.07
2017-10-25T08:13:43.653Z,4.32
2017-10-25T08:14:46.951Z,3.70
2017-10-25T08:15:49.477Z,4.22
2017-10-25T08:16:52.003Z,4.75
2017-10-25T08:17:54.541Z,3.10
2017-10-25T08:18:57.832Z,3.50
2017-10-25T08:20:00.369Z,6.37
2017-10-25T08:21:02.892Z,4.70
2017-10-25T08:22:05.416Z,7.18
2017-10-25T08:23:08.762Z,6.28
2017-10-25T08:24:11.282Z,3.40
2017-10-25T08:25:13.805Z,5.43
2017-10-25T08:26:16.329Z,4.50
2017-10-25T08:27:18.845Z,4.05
2017-10-25T08:28:21.422Z,3.65
2017-10-25T08:29:24.726Z,5.35
2017-10-25T08:30:27.262Z,3.90
2017-10-25T08:31:29.794Z,8.23
2017-10-25T08:32:32.322Z,4.28
2017-10-25T08:33:34.875Z,3.72
2017-10-25T08:34:38.198Z,8.07
2017-10-25T08:35:40.726Z,2.90
2017-10-25T08:36:44.025Z,2.15
2017-10-25T08:37:46.558Z,3.10
2017-10-25T08:38:49.101Z,3.53
2017-10-25T08:39:51.682Z,3.15
2017-10-25T08:40:54.210Z,4.62
2017-10-25T08:41:56.728Z,2.45
2017-10-25T08:43:00.034Z,7.55
2017-10-25T08:44:02.573Z,6.50
2017-10-25T08:45:05.918Z,4.50
2017-10-25T08:46:08.470Z,2.58
2017-10-25T08:47:10.997Z,3.05
2017-10-25T08:48:14.294Z,6.85
2017-10-25T08:49:17.578Z,6.20
2017-10-25T08:50:20.904Z,3.45
2017-10-25T08:51:23.432Z,3.95
2017-10-25T08:52:26.732Z,7.30
2017-10-25T08:53:29.266Z,2.90
2017-10-25T08:54:31.789Z,4.60
2017-10-25T08:55:34.358Z,4.05
2017-10-25T08:56:36.965Z,3.60
2017-10-25T08:57:40.261Z,2.92
2017-10-25T08:58:43.549Z,4.72
2017-10-25T08:59:46.866Z,3.65
2017-10-25T09:00:49.390Z,3.60
2017-10-25T09:01:52.675Z,5.03
2017-10-25T09:02:56.010Z,5.20
2017-10-25T09:03:58.529Z,6.35
2017-10-25T09:05:01.811Z,4.50
2017-10-25T09:06:05.118Z,3.60
2017-10-25T09:07:07.656Z,3.50
2017-10-25T09:08:10.979Z,4.68
2017-10-25T09:09:13.498Z,10.20
2017-10-25T09:10:16.021Z,3.72
2017-10-25T09:11:18.540Z,8.25
2017-10-25T09:12:21.831Z,6.65
2017-10-25T09:13:24.387Z,4.53
2017-10-25T09:14:27.700Z,4.10
2017-10-25T09:15:30.221Z,4.10
2017-10-25T09:16:32.746Z,3.60
2017-10-25T09:17:35.262Z,4.18
2017-10-25T09:18:38.596Z,3.90
2017-10-25T09:19:41.123Z,11.48
2017-10-25T09:20:44.408Z,4.72
2017-10-25T09:21:47.705Z,11.02
2017-10-25T09:22:50.226Z,4.07
2017-10-25T09:23:52.774Z,3.75
2017-10-25T09:24:55.319Z,7.22
2017-10-25T09:25:57.866Z,6.28
2017-10-25T09:27:00.417Z,3.72
2017-10-25T09:28:03.703Z,3.50
2017-10-25T09:29:06.985Z,4.65
2017-10-25T09:30:10.282Z,3.72
2017-10-25T09:31:12.798Z,5.37
2017-10-25T09:32:15.367Z,8.20
2017-10-25T09:33:17.901Z,4.72
2017-10-25T09:34:20.461Z,4.68
2017-10-25T09:35:22.982Z,4.60
2017-10-25T09:36:25.496Z,3.70
2017-10-25T09:37:28.055Z,4.18
2017-10-25T09:38:30.585Z,7.68
2017-10-25T09:39:33.118Z,4.30
2017-10-25T09:40:35.650Z,3.83
2017-10-25T09:41:38.174Z,7.40
2017-10-25T09:42:40.732Z,4.22
2017-10-25T09:43:43.258Z,5.65
2017-10-25T09:44:45.769Z,3.90
2017-10-25T09:45:48.285Z,8.02
2017-10-25T09:46:50.818Z,3.87
2017-10-25T09:47:54.144Z,4.60
2017-10-25T09:48:56.666Z,5.00
2017-10-25T09:49:59.178Z,5.22
2017-10-25T09:51:01.733Z,5.85
2017-10-25T09:52:04.252Z,4.65
2017-10-25T09:53:06.786Z,4.15
2017-10-25T09:54:09.313Z,4.82
2017-10-25T09:55:11.869Z,3.62
2017-10-25T09:56:15.152Z,3.78
2017-10-25T09:57:18.446Z,3.45
2017-10-25T09:58:21.751Z,3.75
2017-10-25T09:59:24.268Z,3.60
2017-10-25T10:00:26.826Z,5.03
2017-10-25T10:01:29.350Z,3.60
2017-10-25T10:02:31.910Z,6.85
2017-10-25T10:03:34.429Z,3.83
2017-10-25T10:04:36.954Z,3.97
2017-10-25T10:05:39.488Z,10.48
2017-10-25T10:06:42.817Z,4.15
2017-10-25T10:07:45.338Z,3.50
2017-10-25T10:08:48.635Z,5.12
2017-10-25T10:09:51.163Z,4.37
2017-10-25T10:10:53.693Z,4.68
2017-10-25T10:11:56.282Z,3.53
2017-10-25T10:12:58.812Z,3.30
2017-10-25T10:14:01.334Z,3.47
2017-10-25T10:15:03.867Z,2.80
2017-10-25T10:16:06.409Z,9.63
2017-10-25T10:17:08.973Z,7.30
2017-10-25T10:18:11.498Z,2.92
2017-10-25T10:19:14.782Z,3.53
2017-10-25T10:20:18.070Z,3.33
2017-10-25T10:21:21.361Z,5.25
2017-10-25T10:22:24.689Z,3.72
2017-10-25T10:23:27.222Z,10.38
2017-10-25T10:24:29.779Z,3.80
2017-10-25T10:25:33.061Z,4.22
2017-10-25T10:26:36.518Z,7.62
2017-10-25T10:27:39.078Z,4.57
2017-10-25T10:28:41.607Z,5.03
2017-10-25T10:29:44.149Z,4.85
2017-10-25T10:30:47.434Z,7.72
2017-10-25T10:31:50.009Z,22.92
2017-10-25T10:32:52.566Z,6.30
2017-10-25T10:33:55.867Z,4.18
2017-10-25T10:34:58.385Z,5.37
2017-10-25T10:36:00.922Z,4.70
2017-10-25T10:37:03.444Z,4.03
2017-10-25T10:38:06.783Z,4.25
2017-10-25T10:39:09.347Z,4.55
2017-10-25T10:40:11.882Z,4.07
2017-10-25T10:41:14.421Z,5.05
2017-10-25T10:42:17.720Z,5.93
2017-10-25T10:43:21.002Z,5.40
2017-10-25T10:44:24.345Z,5.78
2017-10-25T10:45:26.882Z,6.28
2017-10-25T10:46:29.405Z,5.50
2017-10-25T10:47:32.693Z,3.97
2017-10-25T10:48:35.989Z,7.50
2017-10-25T10:49:38.553Z,6.10
2017-10-25T10:50:41.833Z,3.55
2017-10-25T10:51:44.374Z,3.92
2017-10-25T10:52:46.906Z,3.60
2017-10-25T10:53:49.433Z,8.82
2017-10-25T10:54:52.753Z,4.80
2017-10-25T10:55:55.266Z,4.75
2017-10-25T10:56:57.786Z,4.25
2017-10-25T10:58:00.317Z,3.83
2017-10-25T10:59:03.608Z,5.53
2017-10-25T11:00:06.177Z,5.90
2017-10-25T11:01:08.698Z,6.05
2017-10-25T11:02:11.221Z,4.57
2017-10-25T11:03:13.774Z,5.28
2017-10-25T11:04:16.575Z,7.97
2017-10-25T11:05:19.097Z,4.97
2017-10-25T11:06:22.406Z,5.65
2017-10-25T11:07:24.969Z,11.43
2017-10-25T11:08:27.486Z,5.85
2017-10-25T11:09:30.013Z,5.65
2017-10-25T11:10:32.535Z,5.18
2017-10-25T11:11:35.865Z,5.97
2017-10-25T11:12:38.414Z,5.15
2017-10-25T11:13:40.951Z,6.28
2017-10-25T11:14:44.251Z,3.40
2017-10-25T11:15:46.770Z,3.70
2017-10-25T11:16:49.338Z,4.28
2017-10-25T11:17:51.875Z,9.57
2017-10-25T11:18:54.405Z,5.07
2017-10-25T11:19:56.945Z,7.37
2017-10-25T11:20:59.478Z,4.68
2017-10-25T11:22:02.049Z,5.82
2017-10-25T11:23:04.573Z,4.07
2017-10-25T11:24:07.889Z,9.27
2017-10-25T11:25:10.411Z,4.47
2017-10-25T11:26:13.706Z,3.58
2017-10-25T11:27:17.043Z,4.07
2017-10-25T11:28:19.561Z,6.43
2017-10-25T11:29:22.084Z,5.15
2017-10-25T11:30:24.627Z,3.92
2017-10-25T11:31:27.172Z,9.68
2017-10-25T11:32:29.737Z,3.65
2017-10-25T11:33:32.264Z,4.62
2017-10-25T11:34:34.809Z,7.95
2017-10-25T11:35:37.365Z,5.07
2017-10-25T11:36:40.012Z,2.92
2017-10-25T11:37:42.549Z,3.65
2017-10-25T11:38:45.869Z,3.90
2017-10-25T11:39:48.445Z,6.00
2017-10-25T11:40:50.968Z,3.03
2017-10-25T11:41:53.499Z,8.70
2017-10-25T11:42:56.025Z,4.60
2017-10-25T11:43:58.543Z,4.00
2017-10-25T11:45:01.093Z,3.33
2017-10-25T11:46:03.625Z,3.70
2017-10-25T11:47:06.145Z,4.10
2017-10-25T11:48:08.702Z,11.50
2017-10-25T11:49:11.238Z,5.20
2017-10-25T11:50:13.762Z,5.67
2017-10-25T11:51:17.047Z,8.30
2017-10-25T11:52:20.341Z,11.17
2017-10-25T11:53:22.894Z,6.33
2017-10-25T11:54:26.177Z,4.20
2017-10-25T11:55:29.474Z,4.33
2017-10-25T11:56:32.001Z,4.53
2017-10-25T11:57:34.549Z,4.30
2017-10-25T11:58:37.090Z,4.10
2017-10-25T11:59:39.654Z,7.60
2017-10-25T12:00:42.219Z,5.00
2017-10-25T12:01:44.746Z,4.22
2017-10-25T12:02:48.033Z,4.75
2017-10-25T12:03:51.329Z,6.90
2017-10-25T12:04:53.890Z,4.28
2017-10-25T12:05:57.175Z,4.53
2017-10-25T12:07:00.461Z,4.47
2017-10-25T12:08:03.766Z,5.47
2017-10-25T12:09:06.295Z,5.32
2017-10-25T12:10:09.619Z,5.95
2017-10-25T12:11:12.154Z,4.85
2017-10-25T12:12:15.443Z,4.95
2017-10-25T12:13:18.794Z,4.75
2017-10-25T12:14:21.425Z,5.03
2017-10-25T12:15:23.956Z,5.85
2017-10-25T12:16:27.255Z,4.47
2017-10-25T12:17:29.790Z,5.12
2017-10-25T12:18:33.135Z,5.78
2017-10-25T12:19:35.666Z,5.05
2017-10-25T12:20:38.980Z,6.15
2017-10-25T12:21:41.508Z,5.47
2017-10-25T12:22:44.823Z,4.43
2017-10-25T12:23:47.382Z,4.78
2017-10-25T12:24:49.921Z,5.00
2017-10-25T12:25:53.226Z,5.22
2017-10-25T12:26:55.756Z,6.93
2017-10-25T12:27:58.325Z,5.50
2017-10-25T12:29:00.852Z,7.53
2017-10-25T12:30:03.386Z,4.53
2017-10-25T12:31:05.921Z,4.80
2017-10-25T12:32:08.447Z,5.50
2017-10-25T12:33:11.000Z,6.50
2017-10-25T12:34:13.519Z,5.20
2017-10-25T12:35:16.046Z,5.43
2017-10-25T12:36:18.614Z,5.40
2017-10-25T12:37:21.130Z,4.77
2017-10-25T12:38:24.421Z,6.23
2017-10-25T12:39:27.717Z,9.23
2017-10-25T12:40:30.231Z,9.97
2017-10-25T12:41:32.799Z,5.93
2017-10-25T12:42:35.321Z,7.30
2017-10-25T12:43:37.851Z,7.03
2017-10-25T12:44:40.384Z,5.10
2017-10-25T12:45:42.914Z,7.85
2017-10-25T12:46:45.461Z,6.25
2017-10-25T12:47:48.749Z,4.50
2017-10-25T12:48:52.037Z,6.90
2017-10-25T12:49:55.325Z,9.10
2017-10-25T12:50:57.858Z,4.93
2017-10-25T12:52:01.262Z,5.47
2017-10-25T12:53:04.603Z,4.37
2017-10-25T12:54:07.125Z,4.93
2017-10-25T12:55:10.406Z,7.40
2017-10-25T12:56:13.693Z,4.90
2017-10-25T12:57:16.225Z,6.23
2017-10-25T12:58:18.780Z,4.30
2017-10-25T12:59:21.339Z,5.50
2017-10-25T13:00:23.862Z,11.20
2017-10-25T13:01:26.387Z,4.13
2017-10-25T13:02:28.944Z,7.30
2017-10-25T13:03:31.492Z,6.23
2017-10-25T13:04:34.034Z,4.43
2017-10-25T13:05:36.558Z,4.97
2017-10-25T13:06:39.089Z,5.13
2017-10-25T13:07:41.622Z,8.27
2017-10-25T13:08:44.220Z,6.93
2017-10-25T13:09:46.791Z,6.68
2017-10-25T13:10:49.819Z,8.73
2017-10-25T13:11:55.429Z,5.57
2017-10-25T13:13:00.006Z,10.35
2017-10-25T13:14:06.504Z,5.18
2017-10-25T13:15:10.611Z,4.72
2017-10-25T13:16:16.538Z,9.25
2017-10-25T13:17:22.293Z,6.53
2017-10-25T13:18:25.273Z,6.55
2017-10-25T13:19:27.794Z,7.20
2017-10-25T13:20:30.411Z,8.68
2017-10-25T13:21:32.971Z,3.80
2017-10-25T13:22:35.498Z,7.12
2017-10-25T13:23:38.034Z,6.35
2017-10-25T13:24:40.577Z,5.53
2017-10-25T13:25:43.109Z,15.10
2017-10-25T13:26:45.721Z,6.60
2017-10-25T13:27:49.019Z,4.93
2017-10-25T13:28:52.329Z,3.90
2017-10-25T13:29:54.900Z,4.07
2017-10-25T13:30:57.428Z,7.12
2017-10-25T13:32:00.766Z,6.85
2017-10-25T13:33:03.307Z,5.45
2017-10-25T13:34:05.836Z,8.82
2017-10-25T13:35:08.399Z,5.62
2017-10-25T13:36:10.942Z,5.40
2017-10-25T13:37:13.488Z,9.57
2017-10-25T13:38:16.014Z,4.75
2017-10-25T13:39:19.305Z,4.40
2017-10-25T13:40:21.869Z,11.77
2017-10-25T13:41:24.397Z,7.57
2017-10-25T13:42:26.909Z,7.90